Time;durP1;ratioP1;P1;durP2;ratioP2;P2;SDS_P1;SDS_P2;PMS_P1;PMS_P2;Temp;Humidity;BMP_temperature;BMP_pressure;BME280_temperature;BME280_humidity;BME280_pressure;Samples;Min_cycle;Max_cycle;Signal;HPM_P1;HPM_P2
2022/01/29 00:02:27;;;;;;;24.17;8.90;;;;;;;2.86;65.44;97089.72;5095435;28;20447;-35
2022/01/29 00:04:54;;;;;;;6.93;3.80;;;;;;;2.91;64.85;97096.25;5095803;28;20450;-35
2022/01/29 00:07:21;;;;;;;7.30;3.80;;;;;;;2.89;65.25;97099.03;5095706;28;20442;-35
2022/01/29 00:09:48;;;;;;;20.20;6.73;;;;;;;2.89;65.46;97104.28;5095716;28;20806;-37
2022/01/29 00:12:17;;;;;;;10.60;5.00;;;;;;;2.92;65.05;97108.34;5095685;28;20447;-34
2022/01/29 00:14:44;;;;;;;11.37;5.57;;;;;;;2.91;65.39;97106.72;5095282;28;20449;-35
2022/01/29 00:17:13;;;;;;;16.20;6.90;;;;;;;2.90;65.29;97105.88;5095196;28;21009;-37
2022/01/29 00:19:41;;;;;;;10.33;6.20;;;;;;;2.80;65.07;97106.16;5095492;28;20447;-37
2022/01/29 00:22:08;;;;;;;9.77;4.80;;;;;;;2.75;65.31;97107.69;5095407;28;20797;-37
2022/01/29 00:24:36;;;;;;;5.10;4.47;;;;;;;2.75;65.64;97112.94;5095333;28;20842;-35
2022/01/29 00:27:08;;;;;;;8.67;4.10;;;;;;;2.72;65.24;97095.75;5095000;28;20450;-36
2022/01/29 00:29:39;;;;;;;4.37;2.53;;;;;;;2.67;65.18;97095.50;5095093;28;20441;-35
2022/01/29 00:32:08;;;;;;;5.57;4.07;;;;;;;2.66;65.17;97099.09;5094955;28;20431;-36
2022/01/29 00:34:35;;;;;;;6.20;4.17;;;;;;;2.69;65.19;97104.00;5095168;28;20447;-35
2022/01/29 00:37:02;;;;;;;7.90;4.23;;;;;;;2.70;65.69;97102.19;5094730;28;20838;-35
2022/01/29 00:39:29;;;;;;;3.73;2.63;;;;;;;2.67;65.73;97104.16;5094771;28;20934;-36
2022/01/29 00:41:57;;;;;;;3.23;2.30;;;;;;;2.67;65.70;97095.50;5094717;28;20443;-35
2022/01/29 00:44:25;;;;;;;7.20;3.40;;;;;;;2.67;65.64;97085.00;5094979;28;20439;-34
2022/01/29 00:46:53;;;;;;;6.90;3.20;;;;;;;2.66;65.79;97088.59;5094986;28;20537;-35
2022/01/29 00:49:20;;;;;;;8.23;3.60;;;;;;;2.68;65.85;97086.63;5094568;28;20486;-35
2022/01/29 00:51:48;;;;;;;17.03;3.43;;;;;;;2.68;65.54;97086.63;5094874;28;20508;-35
2022/01/29 00:54:15;;;;;;;6.83;3.17;;;;;;;2.66;65.92;97085.97;5094519;28;20442;-36
2022/01/29 00:56:42;;;;;;;3.60;2.60;;;;;;;2.56;65.87;97088.03;5094679;28;20498;-36
2022/01/29 00:59:09;;;;;;;6.30;2.23;;;;;;;2.54;65.94;97083.00;5094439;28;20613;-37
2022/01/29 01:01:37;;;;;;;7.40;3.03;;;;;;;2.53;65.88;97078.72;5094342;28;20806;-37
2022/01/29 01:04:06;;;;;;;3.70;2.67;;;;;;;2.58;65.92;97086.06;5094340;28;20443;-38
2022/01/29 01:06:33;;;;;;;7.80;3.20;;;;;;;2.57;66.15;97090.50;5094581;28;20446;-35
2022/01/29 01:09:00;;;;;;;3.57;2.80;;;;;;;2.63;66.18;97078.47;5093804;28;20449;-38
2022/01/29 01:11:27;;;;;;;5.17;2.80;;;;;;;2.53;66.30;97072.69;5094140;28;20446;-35
2022/01/29 01:13:54;;;;;;;4.80;2.93;;;;;;;2.64;66.10;97080.91;5094523;28;20924;-36
2022/01/29 01:16:22;;;;;;;5.67;3.30;;;;;;;2.54;66.47;97069.88;5094487;28;20443;-38
2022/01/29 01:18:49;;;;;;;11.13;4.53;;;;;;;2.63;66.34;97078.47;5093893;28;21052;-34
2022/01/29 01:21:17;;;;;;;17.40;4.90;;;;;;;2.53;66.48;97052.50;5094046;28;20446;-36
2022/01/29 01:23:45;;;;;;;9.83;3.03;;;;;;;2.60;66.54;97063.94;5093963;28;20443;-35
2022/01/29 01:26:12;;;;;;;4.40;2.97;;;;;;;2.62;66.82;97066.34;5094336;28;20805;-35
2022/01/29 01:28:39;;;;;;;5.03;3.20;;;;;;;2.63;66.53;97068.00;5094256;28;20447;-34
2022/01/29 01:31:06;;;;;;;5.37;3.00;;;;;;;2.57;67.26;97063.47;5093816;28;20461;-34
2022/01/29 01:33:33;;;;;;;3.43;2.60;;;;;;;2.53;66.85;97056.94;5093855;28;20529;-38
2022/01/29 01:36:04;;;;;;;5.43;2.70;;;;;;;2.53;67.04;97056.94;5093766;28;20439;-37
2022/01/29 01:38:40;;;;;;;5.90;2.50;;;;;;;2.56;67.48;97064.44;5093762;28;20557;-37
2022/01/29 01:41:11;;;;;;;5.50;3.87;;;;;;;2.54;66.89;97075.13;5093727;28;20437;-37
2022/01/29 01:43:38;;;;;;;6.97;3.80;;;;;;;2.54;66.66;97069.06;5093769;28;21028;-37
2022/01/29 01:46:06;;;;;;;8.60;5.50;;;;;;;2.53;66.91;97070.06;5093928;28;20449;-38
2022/01/29 01:48:33;;;;;;;22.30;3.57;;;;;;;2.53;66.88;97073.47;5093345;28;20509;-37
2022/01/29 01:51:00;;;;;;;5.43;2.73;;;;;;;2.57;66.77;97087.06;5093901;28;20504;-37
2022/01/29 01:53:28;;;;;;;5.70;3.47;;;;;;;2.64;66.81;97082.72;5093815;28;20449;-37
2022/01/29 01:55:56;;;;;;;12.87;4.47;;;;;;;2.60;66.86;97076.19;5093788;28;20493;-35
2022/01/29 01:58:24;;;;;;;6.03;4.20;;;;;;;2.55;66.80;97076.75;5093374;28;20486;-38
2022/01/29 02:00:51;;;;;;;3.57;2.87;;;;;;;2.56;67.23;97067.06;5094303;28;20446;-37
2022/01/29 02:03:18;;;;;;;7.47;3.80;;;;;;;2.51;67.65;97077.28;5093738;28;20435;-36
2022/01/29 02:05:47;;;;;;;10.73;4.10;;;;;;;2.45;68.04;97076.19;5093446;28;20442;-38
2022/01/29 02:08:16;;;;;;;5.80;3.40;;;;;;;2.43;68.23;97081.63;5093136;28;20795;-35
2022/01/29 02:10:45;;;;;;;5.87;2.97;;;;;;;2.43;68.32;97084.25;5093283;28;20482;-38
2022/01/29 02:13:14;;;;;;;8.10;3.30;;;;;;;2.43;68.70;97086.84;5093355;28;20434;-37
2022/01/29 02:15:41;;;;;;;18.13;5.63;;;;;;;2.46;68.80;97089.13;5093649;28;20833;-36
2022/01/29 02:18:13;;;;;;;14.73;5.40;;;;;;;2.50;68.21;97099.25;5093215;28;20577;-38
2022/01/29 02:20:41;;;;;;;10.13;5.40;;;;;;;2.45;68.36;97082.25;5095910;28;20423;-38
2022/01/29 02:23:10;;;;;;;10.00;5.27;;;;;;;2.51;68.55;97085.16;5097779;28;20500;-37
2022/01/29 02:25:39;;;;;;;15.13;6.80;;;;;;;2.53;68.35;97083.16;5097576;28;20926;-38
2022/01/29 02:28:08;;;;;;;9.40;6.13;;;;;;;2.51;68.48;97085.16;5097676;28;20941;-37
2022/01/29 02:30:38;;;;;;;12.40;5.60;;;;;;;2.50;68.69;97088.78;5097536;28;20439;-37
2022/01/29 02:33:10;;;;;;;4.07;3.47;;;;;;;2.50;68.31;97086.16;5097249;28;20478;-37
2022/01/29 02:35:39;;;;;;;14.47;6.07;;;;;;;2.51;68.34;97085.16;5097177;28;20432;-37
2022/01/29 02:38:07;;;;;;;10.03;3.27;;;;;;;2.30;68.11;97063.03;5097015;28;20988;-37
2022/01/29 02:40:42;;;;;;;9.23;4.97;;;;;;;2.41;68.63;97086.22;5097159;28;20450;-37
2022/01/29 02:43:14;;;;;;;8.43;4.10;;;;;;;2.39;68.61;97090.81;5097359;28;20434;-34
2022/01/29 02:45:42;;;;;;;4.57;4.07;;;;;;;2.36;68.33;97080.69;5097006;28;20926;-34
2022/01/29 02:48:10;;;;;;;5.80;3.80;;;;;;;2.34;68.49;97090.53;5097012;28;20521;-34
2022/01/29 02:50:37;;;;;;;10.63;4.60;;;;;;;2.35;68.75;97094.78;5097214;28;20447;-34
2022/01/29 02:53:05;;;;;;;6.93;3.27;;;;;;;2.34;68.91;97101.00;5097146;28;20930;-35
2022/01/29 02:55:33;;;;;;;7.20;2.97;;;;;;;2.35;68.64;97086.94;5097121;28;20447;-34
2022/01/29 02:58:02;;;;;;;7.87;3.83;;;;;;;2.32;68.84;97086.44;5096967;28;20491;-34
2022/01/29 03:00:29;;;;;;;13.10;5.10;;;;;;;2.39;68.81;97098.69;5097023;28;20799;-34
2022/01/29 03:02:56;;;;;;;7.47;4.90;;;;;;;2.35;68.64;97107.88;5096719;28;20834;-34
2022/01/29 03:05:24;;;;;;;4.97;3.30;;;;;;;2.32;69.04;97107.41;5096984;28;20457;-34
2022/01/29 03:07:51;;;;;;;5.17;2.60;;;;;;;2.27;68.82;97107.94;5096616;28;20443;-35
2022/01/29 03:10:19;;;;;;;7.50;3.70;;;;;;;2.32;68.97;97107.41;5096896;28;20461;-35
2022/01/29 03:12:46;;;;;;;4.67;3.33;;;;;;;2.30;69.24;97109.41;5096700;28;20452;-34
2022/01/29 03:15:15;;;;;;;7.43;4.17;;;;;;;2.14;69.25;97082.34;5096474;28;20451;-34
2022/01/29 03:17:43;;;;;;;16.50;5.10;;;;;;;2.29;69.46;97105.97;5096298;28;20494;-35
2022/01/29 03:20:11;;;;;;;6.87;4.50;;;;;;;2.30;69.64;97109.41;5096400;28;20443;-34
2022/01/29 03:22:39;;;;;;;9.57;5.67;;;;;;;2.31;69.80;97122.34;5096320;28;20439;-35
2022/01/29 03:25:08;;;;;;;6.37;4.20;;;;;;;2.33;69.83;97109.06;5096550;28;20451;-34
2022/01/29 03:27:35;;;;;;;8.90;3.57;;;;;;;2.38;69.44;97123.25;5096540;28;20474;-35
2022/01/29 03:30:02;;;;;;;9.97;3.57;;;;;;;2.38;69.80;97125.88;5096482;28;20462;-36
2022/01/29 03:32:31;;;;;;;8.33;3.53;;;;;;;2.39;69.36;97124.91;5095725;28;20435;-35
2022/01/29 03:34:58;;;;;;;9.90;5.37;;;;;;;2.39;69.60;97130.13;5096339;28;20455;-37
2022/01/29 03:37:25;;;;;;;5.23;3.50;;;;;;;2.41;69.45;97133.41;5096030;28;20442;-34
2022/01/29 03:39:57;;;;;;;6.77;3.67;;;;;;;2.39;69.64;97122.28;5095947;28;20440;-34
2022/01/29 03:42:25;;;;;;;7.87;4.10;;;;;;;2.45;69.94;97132.06;5095984;28;20933;-34
2022/01/29 03:44:54;;;;;;;8.20;3.87;;;;;;;2.50;69.74;97141.19;5096214;28;20454;-35
2022/01/29 03:47:21;;;;;;;9.00;3.57;;;;;;;2.48;69.50;97132.69;5096155;28;20443;-34
2022/01/29 03:49:50;;;;;;;5.03;3.57;;;;;;;2.51;69.48;97143.63;5095672;28;20478;-34
2022/01/29 03:52:17;;;;;;;7.70;2.90;;;;;;;2.48;69.43;97154.47;5095740;28;20435;-34
2022/01/29 03:54:45;;;;;;;9.83;3.60;;;;;;;2.54;69.57;97142.44;5095638;28;20453;-38
2022/01/29 03:57:12;;;;;;;5.60;2.73;;;;;;;2.58;69.37;97135.84;5095661;28;20445;-37
2022/01/29 03:59:39;;;;;;;9.83;3.40;;;;;;;2.57;69.73;97129.81;5095582;28;21009;-37
2022/01/29 04:02:06;;;;;;;4.80;3.83;;;;;;;2.59;69.53;97137.50;5095493;28;20926;-36
2022/01/29 04:04:33;;;;;;;10.07;5.57;;;;;;;2.55;69.75;97133.59;5095470;28;20460;-36
2022/01/29 04:07:08;;;;;;;19.03;9.70;;;;;;;2.52;70.17;97139.19;5095417;28;20439;-36
2022/01/29 04:09:36;;;;;;;9.80;6.43;;;;;;;2.49;70.14;97134.31;5095206;28;20501;-35
2022/01/29 04:12:03;;;;;;;7.80;4.60;;;;;;;2.47;70.49;97139.72;5095688;28;20450;-34
2022/01/29 04:14:36;;;;;;;4.23;3.13;;;;;;;2.55;70.10;97151.97;5095252;28;20450;-37
2022/01/29 04:17:04;;;;;;;5.00;4.00;;;;;;;2.56;69.96;97145.72;5095312;28;20819;-38
2022/01/29 04:19:31;;;;;;;4.50;4.10;;;;;;;2.62;70.03;97152.88;5095093;28;20490;-39
2022/01/29 04:21:58;;;;;;;19.17;8.47;;;;;;;2.60;70.00;97168.78;5095151;28;20450;-37
2022/01/29 04:24:27;;;;;;;9.03;5.33;;;;;;;2.57;70.19;97160.47;5095470;28;20816;-36
2022/01/29 04:26:55;;;;;;;11.33;4.57;;;;;;;2.58;69.90;97165.53;5094999;28;20445;-35
2022/01/29 04:29:22;;;;;;;15.80;7.20;;;;;;;2.64;70.65;97154.31;5095043;28;20443;-35
2022/01/29 04:32:05;;;;;;;7.30;5.10;;;;;;;2.71;70.29;97170.19;5094883;28;20533;-37
2022/01/29 04:34:32;;;;;;;28.97;10.33;;;;;;;2.78;70.28;97171.09;5094996;28;20551;-37
2022/01/29 04:36:59;;;;;;;8.40;5.67;;;;;;;2.81;69.87;97162.84;5095696;28;20443;-37
2022/01/29 04:39:28;;;;;;;4.20;3.80;;;;;;;2.82;70.18;97168.94;5094708;28;21005;-37
2022/01/29 04:41:55;;;;;;;5.20;3.60;;;;;;;2.74;69.99;97154.09;5094412;28;20791;-36
2022/01/29 04:44:22;;;;;;;9.50;4.37;;;;;;;2.85;69.97;97172.00;5094290;28;20439;-35
2022/01/29 04:46:49;;;;;;;7.30;3.47;;;;;;;2.80;69.88;97179.59;5094619;28;20956;-35
2022/01/29 04:49:17;;;;;;;7.43;4.70;;;;;;;2.82;70.15;97184.69;5094507;28;20830;-38
2022/01/29 04:51:44;;;;;;;17.43;7.33;;;;;;;2.84;70.27;97186.13;5094612;28;20443;-37
2022/01/29 04:54:11;;;;;;;17.23;7.13;;;;;;;2.78;70.17;97181.59;5094488;28;20449;-36
2022/01/29 04:56:40;;;;;;;4.17;3.87;;;;;;;2.79;69.40;97187.63;5094845;28;20453;-35
2022/01/29 04:59:07;;;;;;;7.97;5.30;;;;;;;2.76;69.79;97199.28;5094754;28;20486;-35
2022/01/29 05:01:34;;;;;;;15.13;5.90;;;;;;;2.78;69.49;97186.81;5094715;28;20871;-38
2022/01/29 05:04:01;;;;;;;105.00;35.60;;;;;;;2.80;70.22;97187.47;5094613;28;20439;-37
2022/01/29 05:06:29;;;;;;;30.73;12.83;;;;;;;2.82;70.45;97188.09;5094574;28;20447;-35
2022/01/29 05:08:56;;;;;;;23.07;10.13;;;;;;;2.73;70.37;97183.94;5095139;28;20454;-36
2022/01/29 05:11:23;;;;;;;32.27;11.87;;;;;;;2.90;69.96;97173.28;5094441;28;20535;-37
2022/01/29 05:13:52;;;;;;;55.13;23.33;;;;;;;2.89;70.61;97182.16;5094461;28;20446;-36
2022/01/29 05:27:20;;;;;;;12.90;5.10;;;;;;;2.80;71.60;97168.31;5094224;28;20909;-37
2022/01/29 05:29:48;;;;;;;9.53;5.70;;;;;;;2.81;71.68;97172.53;5094243;28;20546;-35
2022/01/29 05:32:16;;;;;;;36.43;14.80;;;;;;;2.80;71.39;97178.78;5094205;28;20439;-35
2022/01/29 05:34:43;;;;;;;69.00;18.53;;;;;;;2.77;71.12;97181.75;5094089;28;20443;-37
2022/01/29 05:37:10;;;;;;;123.53;55.77;;;;;;;2.72;71.03;97181.47;5094130;28;20431;-35
2022/01/29 05:39:37;;;;;;;288.70;116.67;;;;;;;2.73;71.55;97178.69;5094006;28;21016;-34
2022/01/29 05:42:05;;;;;;;79.27;38.47;;;;;;;2.74;71.50;97190.78;5093696;28;20946;-34
2022/01/29 05:44:32;;;;;;;30.97;14.37;;;;;;;2.73;71.41;97193.59;5093694;28;20447;-36
2022/01/29 05:47:01;;;;;;;55.30;18.93;;;;;;;2.73;71.66;97198.81;5093610;28;20930;-35
2022/01/29 05:49:28;;;;;;;15.93;8.13;;;;;;;2.71;71.51;97201.66;5093404;28;20475;-37
2022/01/29 05:51:56;;;;;;;21.13;7.47;;;;;;;2.72;71.45;97199.84;5093613;28;20450;-37
2022/01/29 05:54:23;;;;;;;21.53;7.40;;;;;;;2.69;71.41;97215.91;5093765;28;20843;-36
2022/01/29 05:56:50;;;;;;;14.03;4.80;;;;;;;2.61;72.08;97203.69;5093610;28;20435;-34
2022/01/29 05:59:17;;;;;;;32.53;12.40;;;;;;;2.64;72.38;97200.69;5093710;28;20491;-34
2022/01/29 06:01:45;;;;;;;20.00;10.60;;;;;;;2.66;72.42;97214.44;5093515;28;20439;-34
2022/01/29 06:04:13;;;;;;;12.70;7.03;;;;;;;2.64;71.97;97200.69;5093774;28;20926;-37
2022/01/29 06:06:41;;;;;;;18.07;8.57;;;;;;;2.58;72.59;97206.63;5093734;28;20443;-37
2022/01/29 06:09:08;;;;;;;30.03;11.77;;;;;;;2.63;72.73;97199.88;5093573;28;20439;-37
2022/01/29 06:11:35;;;;;;;23.80;10.57;;;;;;;2.62;72.39;97205.31;5093604;28;20474;-37
2022/01/29 06:14:03;;;;;;;21.87;14.63;;;;;;;2.65;72.84;97215.47;5093404;28;20435;-34
2022/01/29 06:16:30;;;;;;;21.23;11.60;;;;;;;2.64;72.49;97211.19;5093288;28;20439;-34
2022/01/29 06:18:57;;;;;;;14.63;7.17;;;;;;;2.63;72.45;97214.81;5093273;28;20544;-34
2022/01/29 06:21:26;;;;;;;8.13;6.07;;;;;;;2.63;72.66;97220.06;5093614;28;20439;-35
2022/01/29 06:23:53;;;;;;;15.43;10.20;;;;;;;2.62;72.94;97223.66;5093249;28;20534;-33
2022/01/29 06:26:20;;;;;;;14.73;8.67;;;;;;;2.67;72.72;97235.25;5092991;28;20450;-33
2022/01/29 06:28:48;;;;;;;17.10;10.60;;;;;;;2.66;72.64;97230.19;5093503;28;20883;-34
2022/01/29 06:31:15;;;;;;;43.77;23.50;;;;;;;2.64;73.12;97242.66;5093232;28;20446;-34
2022/01/29 06:33:42;;;;;;;53.13;27.80;;;;;;;2.63;73.16;97241.84;5093259;28;20439;-34
2022/01/29 06:36:10;;;;;;;34.70;16.50;;;;;;;2.65;73.82;97239.84;5093135;28;20453;-35
2022/01/29 06:38:38;;;;;;;36.67;13.30;;;;;;;2.74;73.44;97247.66;5093947;28;20570;-36
2022/01/29 06:41:05;;;;;;;15.50;10.60;;;;;;;2.77;73.29;97250.75;5093381;28;20560;-35
2022/01/29 06:43:33;;;;;;;12.83;7.97;;;;;;;2.82;73.20;97260.72;5093327;28;20879;-35
2022/01/29 06:46:00;;;;;;;10.80;7.67;;;;;;;2.85;72.84;97261.16;5093017;28;20796;-34
2022/01/29 06:48:27;;;;;;;18.97;12.40;;;;;;;2.90;72.87;97267.69;5092817;28;20449;-34
2022/01/29 06:50:54;;;;;;;20.90;8.60;;;;;;;2.94;72.53;97266.34;5093342;28;20848;-35
2022/01/29 06:53:22;;;;;;;12.97;8.07;;;;;;;2.76;72.51;97262.22;5093552;28;20443;-34
2022/01/29 06:55:51;;;;;;;14.37;8.93;;;;;;;2.93;72.50;97281.28;5092996;28;20478;-36
2022/01/29 06:58:18;;;;;;;16.73;9.10;;;;;;;2.90;72.22;97278.19;5091928;28;20443;-36
2022/01/29 07:00:45;;;;;;;13.40;7.70;;;;;;;2.95;72.52;97289.00;5093281;28;20454;-36
2022/01/29 07:03:12;;;;;;;14.70;7.83;;;;;;;3.01;72.15;97290.88;5092242;28;20435;-37
2022/01/29 07:05:39;;;;;;;14.30;9.57;;;;;;;3.02;72.25;97285.47;5092734;28;20488;-36
2022/01/29 07:08:07;;;;;;;13.80;8.97;;;;;;;3.07;72.15;97287.56;5096082;28;20443;-38
2022/01/29 07:10:37;;;;;;;9.93;6.23;;;;;;;3.05;71.84;97289.53;5095927;28;20832;-36
2022/01/29 07:13:07;;;;;;;7.73;5.33;;;;;;;3.03;72.34;97281.03;5095923;28;20991;-37
2022/01/29 07:15:34;;;;;;;25.97;13.67;;;;;;;3.12;71.80;97289.66;5114011;28;20449;-38
2022/01/29 07:18:01;;;;;;;26.27;11.60;;;;;;;3.11;72.06;97291.47;5110484;28;20438;-38
2022/01/29 07:20:29;;;;;;;21.50;8.90;;;;;;;3.11;71.99;97296.72;5105760;28;20496;-37
2022/01/29 07:22:56;;;;;;;179.03;53.13;;;;;;;3.15;72.67;97298.00;5115799;28;20438;-36
2022/01/29 07:25:23;;;;;;;23.27;11.80;;;;;;;3.16;71.97;97302.28;5116074;28;20503;-36
2022/01/29 07:27:50;;;;;;;102.70;38.60;;;;;;;3.21;73.16;97301.72;5115947;28;20443;-36
2022/01/29 07:30:19;;;;;;;24.23;12.00;;;;;;;3.22;71.91;97293.66;5116794;28;20940;-36
2022/01/29 07:32:46;;;;;;;36.03;12.77;;;;;;;3.20;71.42;97295.66;5116738;28;20448;-36
2022/01/29 07:35:14;;;;;;;21.20;12.20;;;;;;;3.15;72.44;97302.44;5111532;28;20446;-37
2022/01/29 07:37:41;;;;;;;26.53;13.17;;;;;;;3.19;73.28;97312.41;5095807;28;20447;-36
2022/01/29 07:40:09;;;;;;;48.23;16.17;;;;;;;3.18;72.50;97323.88;5095509;28;20565;-37
2022/01/29 07:42:37;;;;;;;25.00;12.43;;;;;;;3.16;72.51;97315.38;5096229;28;20439;-35
2022/01/29 07:45:04;;;;;;;30.13;11.33;;;;;;;3.16;72.84;97319.78;5096813;28;20829;-35
2022/01/29 07:47:33;;;;;;;23.17;9.30;;;;;;;3.18;72.94;97328.31;5095823;28;20439;-37
2022/01/29 07:50:00;;;;;;;11.03;4.90;;;;;;;3.18;72.55;97328.31;5095113;28;20550;-35
2022/01/29 07:52:28;;;;;;;25.33;11.10;;;;;;;3.14;73.11;97329.66;5095094;28;20436;-37
2022/01/29 07:54:55;;;;;;;13.60;9.67;;;;;;;3.10;73.05;97331.81;5097360;28;20987;-35
2022/01/29 07:57:22;;;;;;;20.33;9.70;;;;;;;3.11;73.42;97333.44;5104429;28;20941;-34
2022/01/29 07:59:51;;;;;;;21.93;10.90;;;;;;;3.12;72.92;97344.75;5100790;28;20487;-37
2022/01/29 08:02:18;;;;;;;15.63;9.23;;;;;;;3.08;73.32;97329.38;5100302;28;20538;-38
2022/01/29 08:04:47;;;;;;;29.77;12.60;;;;;;;3.18;72.84;97338.81;5110526;28;20446;-35
2022/01/29 08:07:14;;;;;;;19.43;8.97;;;;;;;3.26;73.22;97339.56;5116085;28;20456;-35
2022/01/29 08:09:41;;;;;;;24.00;9.93;;;;;;;3.32;72.81;97329.38;5115747;28;20445;-35
2022/01/29 08:12:09;;;;;;;24.83;10.73;;;;;;;3.39;72.72;97351.28;5116071;28;20450;-37
2022/01/29 08:14:36;;;;;;;13.90;7.30;;;;;;;3.44;72.65;97349.75;5116249;28;20446;-37
2022/01/29 08:17:04;;;;;;;11.07;7.03;;;;;;;3.49;72.65;97357.09;5111696;28;20941;-34
2022/01/29 08:19:31;;;;;;;20.30;9.90;;;;;;;3.50;72.41;97348.22;5115412;28;20488;-35
2022/01/29 08:22:00;;;;;;;12.03;8.37;;;;;;;3.60;71.99;97348.78;5115509;28;20620;-35
2022/01/29 08:24:27;;;;;;;18.93;8.93;;;;;;;3.67;71.98;97344.44;5115859;28;20442;-34
2022/01/29 08:26:54;;;;;;;13.50;7.10;;;;;;;3.74;71.67;97362.13;5110008;28;20465;-36
2022/01/29 08:29:21;;;;;;;21.07;12.13;;;;;;;3.86;71.65;97364.13;5097447;28;20473;-37
2022/01/29 08:31:49;;;;;;;13.90;8.30;;;;;;;3.93;71.17;97358.97;5101465;28;20439;-35
2022/01/29 08:34:16;;;;;;;10.00;6.70;;;;;;;4.04;70.71;97361.19;5109227;28;20449;-34
2022/01/29 08:36:43;;;;;;;12.73;8.37;;;;;;;4.12;70.36;97364.69;5115149;28;20438;-35
2022/01/29 08:39:12;;;;;;;22.93;11.53;;;;;;;4.17;70.16;97354.44;5100208;28;20813;-35
2022/01/29 08:41:39;;;;;;;24.43;13.80;;;;;;;4.42;69.83;97358.41;5094545;28;20444;-37
2022/01/29 08:44:06;;;;;;;18.57;12.50;;;;;;;4.42;69.49;97361.03;5093764;28;20443;-35
2022/01/29 08:46:33;;;;;;;28.47;10.90;;;;;;;4.47;69.09;97348.19;5096715;28;20439;-37
2022/01/29 08:49:00;;;;;;;16.27;8.73;;;;;;;4.60;68.64;97365.91;5101828;28;20470;-34
2022/01/29 08:51:28;;;;;;;18.37;10.57;;;;;;;4.69;68.59;97383.25;5096571;28;20439;-34
2022/01/29 08:53:55;;;;;;;14.67;8.37;;;;;;;4.65;67.53;97373.28;5093676;28;20450;-37
2022/01/29 08:56:23;;;;;;;33.07;10.77;;;;;;;4.64;68.04;97371.63;5093617;28;20835;-36
2022/01/29 08:58:50;;;;;;;10.70;7.33;;;;;;;4.70;68.53;97366.44;5094003;28;20437;-36
2022/01/29 09:01:18;;;;;;;40.97;19.10;;;;;;;4.74;68.49;97366.09;5094023;28;20498;-37
2022/01/29 09:03:45;;;;;;;24.07;13.03;;;;;;;4.76;68.08;97372.78;5093815;28;20439;-35
2022/01/29 09:06:12;;;;;;;16.20;9.60;;;;;;;4.76;68.41;97370.16;5094259;28;20449;-34
2022/01/29 09:08:40;;;;;;;14.10;11.30;;;;;;;4.74;68.10;97377.41;5093364;28;20890;-35
2022/01/29 09:11:07;;;;;;;17.30;8.20;;;;;;;4.66;67.55;97353.84;5093199;28;20482;-35
2022/01/29 09:13:36;;;;;;;19.73;11.30;;;;;;;4.80;67.74;97360.09;5093252;28;20975;-35
2022/01/29 09:16:03;;;;;;;14.47;7.47;;;;;;;4.78;67.64;97359.47;5093467;28;20439;-38
2022/01/29 09:18:30;;;;;;;15.03;9.13;;;;;;;4.79;68.23;97358.44;5093584;28;20995;-38
2022/01/29 09:20:58;;;;;;;24.83;10.00;;;;;;;4.74;67.95;97355.56;5096093;28;20986;-38
2022/01/29 09:23:25;;;;;;;12.97;9.60;;;;;;;4.64;67.41;97353.22;5093353;28;20450;-34
2022/01/29 09:25:53;;;;;;;19.30;9.33;;;;;;;4.53;67.78;97357.13;5092968;28;20776;-38
2022/01/29 09:28:21;;;;;;;58.07;18.27;;;;;;;4.54;68.07;97366.66;5092964;28;20440;-36
2022/01/29 09:30:50;;;;;;;25.30;13.33;;;;;;;4.55;68.28;97357.78;5093489;28;20523;-38
2022/01/29 09:33:18;;;;;;;25.50;11.30;;;;;;;4.55;68.24;97357.78;5093310;28;20918;-35
2022/01/29 09:35:45;;;;;;;17.20;8.83;;;;;;;4.53;67.97;97356.31;5093167;28;20448;-34
2022/01/29 09:38:13;;;;;;;62.10;24.63;;;;;;;4.54;68.46;97357.94;5093421;28;20439;-36
2022/01/29 09:40:43;;;;;;;22.07;12.53;;;;;;;4.54;68.36;97352.69;5093060;28;20491;-36
2022/01/29 09:43:11;;;;;;;14.53;9.30;;;;;;;4.53;67.82;97356.31;5092996;28;20435;-36
2022/01/29 09:45:39;;;;;;;12.73;8.10;;;;;;;4.59;68.54;97358.22;5093369;28;20513;-35
2022/01/29 09:48:07;;;;;;;13.77;7.20;;;;;;;4.71;68.22;97347.03;5092127;28;20439;-35
2022/01/29 09:50:36;;;;;;;11.47;6.83;;;;;;;4.75;67.80;97349.28;5091195;28;20447;-34
2022/01/29 09:53:05;;;;;;;35.83;10.70;;;;;;;4.83;67.56;97347.34;5090406;28;20447;-38
2022/01/29 09:55:33;;;;;;;12.10;5.90;;;;;;;4.95;66.56;97346.88;5097630;28;20434;-35
2022/01/29 09:58:01;;;;;;;6.93;5.30;;;;;;;4.87;66.80;97316.25;5094984;28;20443;-35
2022/01/29 10:00:28;;;;;;;8.63;6.10;;;;;;;5.08;65.96;97344.38;5093703;28;20490;-35
2022/01/29 10:03:19;;;;;;;5.80;4.40;;;;;;;5.04;66.09;97340.50;5093427;28;20931;-34
2022/01/29 10:05:47;;;;;;;10.37;4.87;;;;;;;4.88;66.29;97345.00;5093476;28;20435;-35
2022/01/29 10:08:16;;;;;;;19.67;9.10;;;;;;;4.86;66.85;97339.09;5093335;28;20442;-38
2022/01/29 10:10:44;;;;;;;5.10;4.20;;;;;;;4.82;66.23;97337.00;5093393;28;20447;-35
2022/01/29 10:13:28;;;;;;;10.57;6.73;;;;;;;4.70;66.32;97339.31;5092420;28;20439;-35
2022/01/29 10:16:09;;;;;;;10.43;5.27;;;;;;;4.67;67.12;97335.25;5093012;28;20823;-34
2022/01/29 10:18:38;;;;;;;12.87;8.10;;;;;;;4.92;66.42;97332.28;5093188;28;20511;-35
2022/01/29 10:21:16;;;;;;;4.93;3.77;;;;;;;5.21;65.48;97327.91;5093394;28;20482;-35
2022/01/29 10:23:46;;;;;;;18.63;7.70;;;;;;;5.46;64.63;97333.56;5103225;28;20476;-35
2022/01/29 10:26:28;;;;;;;6.80;5.00;;;;;;;5.64;64.57;97339.19;5095183;28;20439;-36
2022/01/29 10:28:56;;;;;;;7.73;5.20;;;;;;;5.97;64.20;97330.72;5092649;28;20427;-34
2022/01/29 10:31:23;;;;;;;4.50;4.03;;;;;;;6.21;62.94;97328.63;5093263;28;20451;-35
2022/01/29 10:33:53;;;;;;;6.60;5.70;;;;;;;6.24;62.04;97328.22;5093078;28;20435;-37
2022/01/29 10:36:22;;;;;;;8.10;5.37;;;;;;;6.27;62.07;97335.75;5093443;28;20458;-36
2022/01/29 10:38:52;;;;;;;6.70;4.90;;;;;;;6.21;61.47;97334.69;5092987;28;20533;-36
2022/01/29 10:41:27;;;;;;;9.00;6.43;;;;;;;6.17;62.29;97345.84;5094556;28;20490;-36
2022/01/29 10:44:14;;;;;;;14.47;6.40;;;;;;;6.14;62.17;97353.13;5097362;28;20512;-35
2022/01/29 10:46:45;;;;;;;12.07;7.53;;;;;;;5.99;61.75;97347.16;5105636;28;20449;-35
2022/01/29 10:49:23;;;;;;;12.63;7.67;;;;;;;6.09;61.41;97355.53;5117258;28;20466;-35
2022/01/29 10:52:06;;;;;;;15.00;6.07;;;;;;;6.04;61.22;97357.91;5117736;28;20491;-35
2022/01/29 10:54:35;;;;;;;8.07;4.40;;;;;;;5.74;60.97;97331.78;5115076;28;21002;-35
2022/01/29 10:57:03;;;;;;;11.07;6.37;;;;;;;5.75;61.90;97330.75;5117211;28;20441;-35
2022/01/29 10:59:33;;;;;;;13.13;6.10;;;;;;;5.84;60.71;97355.13;5117477;28;20459;-35
2022/01/29 11:02:02;;;;;;;4.40;3.97;;;;;;;5.78;60.44;97352.44;5117281;28;20438;-34
2022/01/29 11:04:32;;;;;;;5.80;3.70;;;;;;;5.69;61.09;97354.41;5117058;28;20481;-34
2022/01/29 11:07:03;;;;;;;7.03;5.00;;;;;;;5.67;61.60;97357.25;5117154;28;20929;-36
2022/01/29 11:09:31;;;;;;;8.60;4.90;;;;;;;5.63;61.45;97349.91;5117162;28;20430;-36
2022/01/29 11:12:02;;;;;;;5.37;4.17;;;;;;;5.62;61.85;97350.94;5117042;28;20874;-35
2022/01/29 11:14:31;;;;;;;13.43;5.40;;;;;;;5.58;61.70;97354.94;5117375;28;20442;-35
2022/01/29 11:17:00;;;;;;;3.50;3.27;;;;;;;5.67;61.36;97357.25;5116879;28;20442;-34
2022/01/29 11:19:27;;;;;;;8.83;5.77;;;;;;;5.68;61.12;97347.53;5116879;28;20441;-34
2022/01/29 11:22:00;;;;;;;7.07;3.03;;;;;;;5.68;60.60;97347.53;5116998;28;20573;-34
2022/01/29 11:24:28;;;;;;;13.77;6.23;;;;;;;5.70;60.41;97346.34;5117050;28;20426;-34
2022/01/29 11:26:56;;;;;;;3.70;3.40;;;;;;;5.67;61.14;97341.44;5116696;28;20446;-34
2022/01/29 11:29:32;;;;;;;18.23;7.70;;;;;;;5.73;61.30;97327.50;5116678;28;21028;-34
2022/01/29 11:32:28;;;;;;;18.93;8.30;;;;;;;5.86;60.92;97339.13;5116567;28;20441;-34
2022/01/29 11:35:13;;;;;;;18.33;8.90;;;;;;;5.97;61.66;97341.25;5116823;28;20446;-34
2022/01/29 11:37:48;;;;;;;16.33;9.27;;;;;;;5.96;60.71;97331.75;5116476;28;20450;-35
2022/01/29 11:40:24;;;;;;;9.97;4.97;;;;;;;5.89;60.97;97304.47;5116686;28;20476;-34
2022/01/29 11:43:00;;;;;;;7.80;6.87;;;;;;;6.10;61.08;97335.25;5106763;28;20953;-34
2022/01/29 11:45:49;;;;;;;21.97;12.70;;;;;;;6.10;59.97;97336.06;5096050;28;20434;-34
2022/01/29 11:48:52;;;;;;;10.23;9.23;;;;;;;6.02;60.83;97333.56;5095723;28;20485;-34
2022/01/29 11:51:53;;;;;;;19.30;11.47;;;;;;;5.94;60.83;97323.19;5095555;28;20791;-34
2022/01/29 11:54:24;;;;;;;27.70;14.93;;;;;;;5.92;61.53;97338.38;5095820;28;20542;-34